sensor_id;sensor_type;location;lat;lon;timestamp;temperature;humidity
9998;DHT22;5038;53.064;8.624;2022-10-03T00:02:44;12.30;99.90
9998;DHT22;5038;53.064;8.624;2022-10-03T00:05:26;12.20;99.90
9998;DHT22;5038;53.064;8.624;2022-10-03T00:08:07;12.20;99.90
9998;DHT22;5038;53.064;8.624;2022-10-03T00:10:50;12.20;99.90
9998;DHT22;5038;53.064;8.624;2022-10-03T00:13:23;12.20;99.90
9998;DHT22;5038;53.064;8.624;2022-10-03T00:16:04;12.20;99.90
9998;DHT22;5038;53.064;8.624;2022-10-03T00:18:44;12.20;99.90
9998;DHT22;5038;53.064;8.624;2022-10-03T00:21:20;12.10;99.90
9998;DHT22;5038;53.064;8.624;2022-10-03T00:24:01;12.20;99.90
9998;DHT22;5038;53.064;8.624;2022-10-03T00:26:41;12.20;99.90
9998;DHT22;5038;53.064;8.624;2022-10-03T00:29:23;12.10;99.90
9998;DHT22;5038;53.064;8.624;2022-10-03T00:31:59;12.10;99.90
9998;DHT22;5038;53.064;8.624;2022-10-03T00:34:41;12.10;99.90
9998;DHT22;5038;53.064;8.624;2022-10-03T00:37:23;12.10;99.90
9998;DHT22;5038;53.064;8.624;2022-10-03T00:40:27;12.10;99.90
9998;DHT22;5038;53.064;8.624;2022-10-03T00:43:33;12.10;99.90
9998;DHT22;5038;53.064;8.624;2022-10-03T00:46:25;12.10;99.90
9998;DHT22;5038;53.064;8.624;2022-10-03T00:49:28;12.00;99.90
9998;DHT22;5038;53.064;8.624;2022-10-03T00:52:10;12.00;99.90
9998;DHT22;5038;53.064;8.624;2022-10-03T00:54:58;12.00;99.90
9998;DHT22;5038;53.064;8.624;2022-10-03T00:57:52;12.00;99.90
9998;DHT22;5038;53.064;8.624;2022-10-03T01:00:26;12.00;99.90
9998;DHT22;5038;53.064;8.624;2022-10-03T01:03:14;12.00;99.90
9998;DHT22;5038;53.064;8.624;2022-10-03T01:05:58;12.00;99.90
9998;DHT22;5038;53.064;8.624;2022-10-03T01:11:30;11.90;99.90
9998;DHT22;5038;53.064;8.624;2022-10-03T01:14:15;11.90;99.90
9998;DHT22;5038;53.064;8.624;2022-10-03T01:16:59;11.90;99.90
9998;DHT22;5038;53.064;8.624;2022-10-03T01:19:47;11.90;99.90
9998;DHT22;5038;53.064;8.624;2022-10-03T01:22:47;11.90;99.90
9998;DHT22;5038;53.064;8.624;2022-10-03T01:25:35;11.90;99.90
9998;DHT22;5038;53.064;8.624;2022-10-03T01:28:22;12.00;99.90
9998;DHT22;5038;53.064;8.624;2022-10-03T01:31:13;11.90;99.90
9998;DHT22;5038;53.064;8.624;2022-10-03T01:33:47;11.90;99.90
9998;DHT22;5038;53.064;8.624;2022-10-03T01:36:22;11.90;99.90
9998;DHT22;5038;53.064;8.624;2022-10-03T01:38:59;11.90;99.90
9998;DHT22;5038;53.064;8.624;2022-10-03T01:41:36;11.90;99.90
9998;DHT22;5038;53.064;8.624;2022-10-03T01:44:15;11.90;99.90
9998;DHT22;5038;53.064;8.624;2022-10-03T01:46:51;11.90;99.90
9998;DHT22;5038;53.064;8.624;2022-10-03T01:49:26;11.90;99.90
9998;DHT22;5038;53.064;8.624;2022-10-03T01:52:02;11.90;99.90
9998;DHT22;5038;53.064;8.624;2022-10-03T01:54:36;11.90;99.90
9998;DHT22;5038;53.064;8.624;2022-10-03T01:57:15;11.90;99.90
9998;DHT22;5038;53.064;8.624;2022-10-03T01:59:55;11.90;99.90
9998;DHT22;5038;53.064;8.624;2022-10-03T02:02:31;11.90;99.90
9998;DHT22;5038;53.064;8.624;2022-10-03T02:05:07;11.80;99.90
9998;DHT22;5038;53.064;8.624;2022-10-03T02:07:44;11.80;99.90
9998;DHT22;5038;53.064;8.624;2022-10-03T02:10:21;11.80;99.90
9998;DHT22;5038;53.064;8.624;2022-10-03T02:12:57;11.80;99.90
9998;DHT22;5038;53.064;8.624;2022-10-03T02:15:33;11.90;99.90
9998;DHT22;5038;53.064;8.624;2022-10-03T02:18:12;11.90;99.90
9998;DHT22;5038;53.064;8.624;2022-10-03T02:20:46;11.90;99.90
9998;DHT22;5038;53.064;8.624;2022-10-03T02:23:25;11.90;99.90
9998;DHT22;5038;53.064;8.624;2022-10-03T02:26:34;11.90;99.90
9998;DHT22;5038;53.064;8.624;2022-10-03T02:29:41;11.90;99.90
9998;DHT22;5038;53.064;8.624;2022-10-03T02:35:34;11.90;99.90
9998;DHT22;5038;53.064;8.624;2022-10-03T02:38:27;11.90;99.90
9998;DHT22;5038;53.064;8.624;2022-10-03T02:41:33;11.80;99.90
9998;DHT22;5038;53.064;8.624;2022-10-03T02:44:23;11.80;99.90
9998;DHT22;5038;53.064;8.624;2022-10-03T02:50:28;11.80;99.90
9998;DHT22;5038;53.064;8.624;2022-10-03T02:53:41;11.80;99.90
9998;DHT22;5038;53.064;8.624;2022-10-03T02:59:49;11.70;99.90
9998;DHT22;5038;53.064;8.624;2022-10-03T03:05:35;11.70;99.90
9998;DHT22;5038;53.064;8.624;2022-10-03T03:08:23;11.60;99.90
9998;DHT22;5038;53.064;8.624;2022-10-03T03:11:17;11.60;99.90
9998;DHT22;5038;53.064;8.624;2022-10-03T03:14:12;11.60;99.90
9998;DHT22;5038;53.064;8.624;2022-10-03T03:16:54;11.60;99.90
9998;DHT22;5038;53.064;8.624;2022-10-03T03:19:50;11.60;99.90
9998;DHT22;5038;53.064;8.624;2022-10-03T03:22:34;11.60;99.90
9998;DHT22;5038;53.064;8.624;2022-10-03T03:25:20;11.60;99.90
9998;DHT22;5038;53.064;8.624;2022-10-03T03:28:00;11.60;99.90
9998;DHT22;5038;53.064;8.624;2022-10-03T03:30:39;11.60;99.90
9998;DHT22;5038;53.064;8.624;2022-10-03T03:33:15;11.60;99.90
9998;DHT22;5038;53.064;8.624;2022-10-03T03:35:56;11.50;99.90
9998;DHT22;5038;53.064;8.624;2022-10-03T03:38:31;11.50;99.90
9998;DHT22;5038;53.064;8.624;2022-10-03T03:43:58;11.50;99.90
9998;DHT22;5038;53.064;8.624;2022-10-03T03:46:40;11.50;99.90
9998;DHT22;5038;53.064;8.624;2022-10-03T03:49:26;11.50;99.90
9998;DHT22;5038;53.064;8.624;2022-10-03T03:52:09;11.50;99.90
9998;DHT22;5038;53.064;8.624;2022-10-03T03:55:02;11.50;99.90
9998;DHT22;5038;53.064;8.624;2022-10-03T03:58:12;11.50;99.90
9998;DHT22;5038;53.064;8.624;2022-10-03T04:00:56;11.50;99.90
9998;DHT22;5038;53.064;8.624;2022-10-03T04:03:37;11.40;99.90
9998;DHT22;5038;53.064;8.624;2022-10-03T04:06:32;11.40;99.90
9998;DHT22;5038;53.064;8.624;2022-10-03T04:09:30;11.40;99.90
9998;DHT22;5038;53.064;8.624;2022-10-03T04:12:18;11.40;99.90
9998;DHT22;5038;53.064;8.624;2022-10-03T04:15:02;11.40;99.90
9998;DHT22;5038;53.064;8.624;2022-10-03T04:17:42;11.40;99.90
9998;DHT22;5038;53.064;8.624;2022-10-03T04:20:56;11.50;99.90
9998;DHT22;5038;53.064;8.624;2022-10-03T04:23:43;11.50;99.90
9998;DHT22;5038;53.064;8.624;2022-10-03T04:26:23;11.50;99.90
9998;DHT22;5038;53.064;8.624;2022-10-03T04:29:29;11.50;99.90
9998;DHT22;5038;53.064;8.624;2022-10-03T04:32:09;11.50;99.90
9998;DHT22;5038;53.064;8.624;2022-10-03T04:34:54;11.50;99.90
9998;DHT22;5038;53.064;8.624;2022-10-03T04:37:32;11.50;99.90
9998;DHT22;5038;53.064;8.624;2022-10-03T04:40:09;11.50;99.90
9998;DHT22;5038;53.064;8.624;2022-10-03T04:42:50;11.50;99.90
9998;DHT22;5038;53.064;8.624;2022-10-03T04:45:34;11.50;99.90
9998;DHT22;5038;53.064;8.624;2022-10-03T04:48:13;11.50;99.90
9998;DHT22;5038;53.064;8.624;2022-10-03T04:50:49;11.50;99.90
9998;DHT22;5038;53.064;8.624;2022-10-03T04:53:35;11.50;99.90
9998;DHT22;5038;53.064;8.624;2022-10-03T04:56:21;11.50;99.90
9998;DHT22;5038;53.064;8.624;2022-10-03T04:58:57;11.50;99.90
9998;DHT22;5038;53.064;8.624;2022-10-03T05:01:38;11.50;99.90
9998;DHT22;5038;53.064;8.624;2022-10-03T05:04:18;11.50;99.90
9998;DHT22;5038;53.064;8.624;2022-10-03T05:07:00;11.50;99.90
9998;DHT22;5038;53.064;8.624;2022-10-03T05:09:41;11.50;99.90
9998;DHT22;5038;53.064;8.624;2022-10-03T05:12:16;11.50;99.90
9998;DHT22;5038;53.064;8.624;2022-10-03T05:15:04;11.50;99.90
9998;DHT22;5038;53.064;8.624;2022-10-03T05:17:48;11.50;99.90
9998;DHT22;5038;53.064;8.624;2022-10-03T05:20:38;11.50;99.90
9998;DHT22;5038;53.064;8.624;2022-10-03T05:23:18;11.50;99.90
9998;DHT22;5038;53.064;8.624;2022-10-03T05:25:55;11.50;99.90
9998;DHT22;5038;53.064;8.624;2022-10-03T05:28:49;11.50;99.90
9998;DHT22;5038;53.064;8.624;2022-10-03T05:31:32;11.50;99.90
9998;DHT22;5038;53.064;8.624;2022-10-03T05:34:11;11.50;99.90
9998;DHT22;5038;53.064;8.624;2022-10-03T05:37:00;11.50;99.90
9998;DHT22;5038;53.064;8.624;2022-10-03T05:39:37;11.50;99.90
9998;DHT22;5038;53.064;8.624;2022-10-03T05:45:04;11.50;99.90
9998;DHT22;5038;53.064;8.624;2022-10-03T05:47:49;11.50;99.90
9998;DHT22;5038;53.064;8.624;2022-10-03T05:50:37;11.50;99.90
9998;DHT22;5038;53.064;8.624;2022-10-03T05:53:24;11.50;99.90
9998;DHT22;5038;53.064;8.624;2022-10-03T05:56:06;11.50;99.90
9998;DHT22;5038;53.064;8.624;2022-10-03T05:58:56;11.50;99.90
9998;DHT22;5038;53.064;8.624;2022-10-03T06:01:47;11.50;99.90
9998;DHT22;5038;53.064;8.624;2022-10-03T06:07:24;11.50;99.90
9998;DHT22;5038;53.064;8.624;2022-10-03T06:10:22;11.50;99.90
9998;DHT22;5038;53.064;8.624;2022-10-03T06:13:07;11.50;99.90
9998;DHT22;5038;53.064;8.624;2022-10-03T06:15:47;11.60;99.90
9998;DHT22;5038;53.064;8.624;2022-10-03T06:18:44;11.60;99.90
9998;DHT22;5038;53.064;8.624;2022-10-03T06:21:53;11.60;99.90
9998;DHT22;5038;53.064;8.624;2022-10-03T06:27:53;11.70;99.90
9998;DHT22;5038;53.064;8.624;2022-10-03T06:30:32;11.70;99.90
9998;DHT22;5038;53.064;8.624;2022-10-03T06:36:42;11.80;99.90
9998;DHT22;5038;53.064;8.624;2022-10-03T06:39:39;11.90;99.90
9998;DHT22;5038;53.064;8.624;2022-10-03T06:42:45;11.90;99.90
9998;DHT22;5038;53.064;8.624;2022-10-03T06:45:56;11.90;99.90
9998;DHT22;5038;53.064;8.624;2022-10-03T06:48:47;12.00;99.90
9998;DHT22;5038;53.064;8.624;2022-10-03T06:55:12;12.10;99.90
9998;DHT22;5038;53.064;8.624;2022-10-03T06:58:00;12.10;99.90
9998;DHT22;5038;53.064;8.624;2022-10-03T07:00:46;12.20;99.90
9998;DHT22;5038;53.064;8.624;2022-10-03T07:03:43;12.20;99.90
9998;DHT22;5038;53.064;8.624;2022-10-03T07:06:40;12.20;99.90
9998;DHT22;5038;53.064;8.624;2022-10-03T07:09:46;12.30;99.90
9998;DHT22;5038;53.064;8.624;2022-10-03T07:12:38;12.30;99.90
9998;DHT22;5038;53.064;8.624;2022-10-03T07:21:55;12.40;99.90
9998;DHT22;5038;53.064;8.624;2022-10-03T07:25:22;12.50;99.90
9998;DHT22;5038;53.064;8.624;2022-10-03T07:28:16;12.60;99.90
9998;DHT22;5038;53.064;8.624;2022-10-03T07:30:58;12.60;99.90
9998;DHT22;5038;53.064;8.624;2022-10-03T07:33:59;12.70;99.90
9998;DHT22;5038;53.064;8.624;2022-10-03T07:36:33;12.90;99.90
9998;DHT22;5038;53.064;8.624;2022-10-03T07:45:45;13.20;99.90
9998;DHT22;5038;53.064;8.624;2022-10-03T07:48:48;13.20;99.90
9998;DHT22;5038;53.064;8.624;2022-10-03T07:51:22;13.30;99.90
9998;DHT22;5038;53.064;8.624;2022-10-03T07:54:22;13.40;99.90
9998;DHT22;5038;53.064;8.624;2022-10-03T07:57:26;13.40;99.90
9998;DHT22;5038;53.064;8.624;2022-10-03T08:06:24;13.60;99.90
9998;DHT22;5038;53.064;8.624;2022-10-03T08:12:31;13.80;99.90
9998;DHT22;5038;53.064;8.624;2022-10-03T08:15:08;13.90;99.90
9998;DHT22;5038;53.064;8.624;2022-10-03T08:18:03;13.90;99.90
9998;DHT22;5038;53.064;8.624;2022-10-03T08:20:50;14.00;99.90
9998;DHT22;5038;53.064;8.624;2022-10-03T08:24:04;14.20;99.90
9998;DHT22;5038;53.064;8.624;2022-10-03T08:26:59;14.30;99.90
9998;DHT22;5038;53.064;8.624;2022-10-03T08:32:53;14.50;99.90
9998;DHT22;5038;53.064;8.624;2022-10-03T08:35:55;14.60;99.90
9998;DHT22;5038;53.064;8.624;2022-10-03T08:38:55;14.70;99.90
9998;DHT22;5038;53.064;8.624;2022-10-03T08:45:25;15.00;99.90
9998;DHT22;5038;53.064;8.624;2022-10-03T08:54:31;15.20;99.90
9998;DHT22;5038;53.064;8.624;2022-10-03T08:57:16;15.30;99.90
9998;DHT22;5038;53.064;8.624;2022-10-03T09:00:13;15.40;99.90
9998;DHT22;5038;53.064;8.624;2022-10-03T09:03:10;15.40;99.90
9998;DHT22;5038;53.064;8.624;2022-10-03T09:06:27;15.40;99.90
9998;DHT22;5038;53.064;8.624;2022-10-03T09:09:24;15.60;99.90
9998;DHT22;5038;53.064;8.624;2022-10-03T09:12:40;15.60;99.90
9998;DHT22;5038;53.064;8.624;2022-10-03T09:18:29;15.70;99.90
9998;DHT22;5038;53.064;8.624;2022-10-03T09:27:25;15.90;99.90
9998;DHT22;5038;53.064;8.624;2022-10-03T09:30:21;15.90;99.90
9998;DHT22;5038;53.064;8.624;2022-10-03T09:43:01;16.10;99.90
9998;DHT22;5038;53.064;8.624;2022-10-03T09:48:43;16.10;99.90
9998;DHT22;5038;53.064;8.624;2022-10-03T09:51:30;16.20;99.90
9998;DHT22;5038;53.064;8.624;2022-10-03T10:00:21;16.30;99.90
9998;DHT22;5038;53.064;8.624;2022-10-03T10:12:24;16.50;99.90
9998;DHT22;5038;53.064;8.624;2022-10-03T10:15:42;16.50;99.90
9998;DHT22;5038;53.064;8.624;2022-10-03T10:21:39;16.60;99.90
9998;DHT22;5038;53.064;8.624;2022-10-03T10:30:37;16.80;99.90
9998;DHT22;5038;53.064;8.624;2022-10-03T10:36:59;16.80;99.90
9998;DHT22;5038;53.064;8.624;2022-10-03T10:46:05;16.90;99.90
9998;DHT22;5038;53.064;8.624;2022-10-03T10:58:26;17.00;99.90
9998;DHT22;5038;53.064;8.624;2022-10-03T11:01:35;17.00;99.90
9998;DHT22;5038;53.064;8.624;2022-10-03T11:10:50;17.00;99.90
9998;DHT22;5038;53.064;8.624;2022-10-03T11:17:21;17.20;99.90
9998;DHT22;5038;53.064;8.624;2022-10-03T11:20:16;17.20;99.90
9998;DHT22;5038;53.064;8.624;2022-10-03T11:23:22;17.20;99.90
9998;DHT22;5038;53.064;8.624;2022-10-03T11:26:20;17.30;99.90
9998;DHT22;5038;53.064;8.624;2022-10-03T11:35:56;17.50;99.90
9998;DHT22;5038;53.064;8.624;2022-10-03T11:38:33;17.50;99.90
9998;DHT22;5038;53.064;8.624;2022-10-03T11:41:12;17.50;99.90
9998;DHT22;5038;53.064;8.624;2022-10-03T11:44:07;17.50;99.90
9998;DHT22;5038;53.064;8.624;2022-10-03T11:47:01;17.50;99.90
9998;DHT22;5038;53.064;8.624;2022-10-03T11:52:36;17.50;99.90
9998;DHT22;5038;53.064;8.624;2022-10-03T11:55:23;17.50;99.90
9998;DHT22;5038;53.064;8.624;2022-10-03T11:58:02;17.60;99.90
9998;DHT22;5038;53.064;8.624;2022-10-03T12:00:39;17.50;99.90
9998;DHT22;5038;53.064;8.624;2022-10-03T12:03:19;17.60;99.90
9998;DHT22;5038;53.064;8.624;2022-10-03T12:05:55;17.60;99.90
9998;DHT22;5038;53.064;8.624;2022-10-03T12:08:59;17.70;99.90
9998;DHT22;5038;53.064;8.624;2022-10-03T12:11:34;17.80;99.90
9998;DHT22;5038;53.064;8.624;2022-10-03T12:14:23;17.80;99.90
9998;DHT22;5038;53.064;8.624;2022-10-03T12:17:01;17.80;99.90
9998;DHT22;5038;53.064;8.624;2022-10-03T12:19:37;17.90;99.90
9998;DHT22;5038;53.064;8.624;2022-10-03T12:22:17;17.90;99.90
9998;DHT22;5038;53.064;8.624;2022-10-03T12:24:50;17.80;99.90
9998;DHT22;5038;53.064;8.624;2022-10-03T12:30:13;17.70;99.90
9998;DHT22;5038;53.064;8.624;2022-10-03T12:32:48;17.80;99.90
9998;DHT22;5038;53.064;8.624;2022-10-03T12:35:34;17.80;99.90
9998;DHT22;5038;53.064;8.624;2022-10-03T12:38:19;17.80;99.90
9998;DHT22;5038;53.064;8.624;2022-10-03T12:41:00;17.70;99.90
9998;DHT22;5038;53.064;8.624;2022-10-03T12:43:40;17.70;99.90
9998;DHT22;5038;53.064;8.624;2022-10-03T12:46:14;17.70;99.90
9998;DHT22;5038;53.064;8.624;2022-10-03T12:48:47;17.60;99.90
9998;DHT22;5038;53.064;8.624;2022-10-03T12:51:32;17.60;99.90
9998;DHT22;5038;53.064;8.624;2022-10-03T12:54:12;17.50;99.90
9998;DHT22;5038;53.064;8.624;2022-10-03T12:56:47;17.50;99.90
9998;DHT22;5038;53.064;8.624;2022-10-03T12:59:34;17.50;99.90
9998;DHT22;5038;53.064;8.624;2022-10-03T13:02:21;17.50;99.90
9998;DHT22;5038;53.064;8.624;2022-10-03T13:07:53;17.60;99.90
9998;DHT22;5038;53.064;8.624;2022-10-03T13:10:30;17.60;99.90
9998;DHT22;5038;53.064;8.624;2022-10-03T13:13:12;17.60;99.90
9998;DHT22;5038;53.064;8.624;2022-10-03T13:15:58;17.60;99.90
9998;DHT22;5038;53.064;8.624;2022-10-03T13:21:49;17.60;99.90
9998;DHT22;5038;53.064;8.624;2022-10-03T13:24:27;17.60;99.90
9998;DHT22;5038;53.064;8.624;2022-10-03T13:27:14;17.50;99.90
9998;DHT22;5038;53.064;8.624;2022-10-03T13:29:47;17.50;99.90
9998;DHT22;5038;53.064;8.624;2022-10-03T13:32:25;17.50;99.90
9998;DHT22;5038;53.064;8.624;2022-10-03T13:35:21;17.60;99.90
9998;DHT22;5038;53.064;8.624;2022-10-03T13:38:50;17.60;99.90
9998;DHT22;5038;53.064;8.624;2022-10-03T13:41:28;17.60;99.90
9998;DHT22;5038;53.064;8.624;2022-10-03T13:43:59;17.60;99.90
9998;DHT22;5038;53.064;8.624;2022-10-03T13:46:39;17.60;99.90
9998;DHT22;5038;53.064;8.624;2022-10-03T13:49:13;17.60;99.90
9998;DHT22;5038;53.064;8.624;2022-10-03T13:51:50;17.60;99.90
9998;DHT22;5038;53.064;8.624;2022-10-03T13:54:28;17.60;99.90
9998;DHT22;5038;53.064;8.624;2022-10-03T13:57:11;17.60;99.90
9998;DHT22;5038;53.064;8.624;2022-10-03T13:59:51;17.70;99.90
9998;DHT22;5038;53.064;8.624;2022-10-03T14:02:41;17.70;99.90
9998;DHT22;5038;53.064;8.624;2022-10-03T14:05:45;17.70;99.90
9998;DHT22;5038;53.064;8.624;2022-10-03T14:08:36;17.70;99.90
9998;DHT22;5038;53.064;8.624;2022-10-03T14:11:21;17.70;99.90
9998;DHT22;5038;53.064;8.624;2022-10-03T14:14:09;17.60;99.90
9998;DHT22;5038;53.064;8.624;2022-10-03T14:16:47;17.60;99.90
9998;DHT22;5038;53.064;8.624;2022-10-03T14:19:34;17.60;99.90
9998;DHT22;5038;53.064;8.624;2022-10-03T14:25:08;17.50;99.90
9998;DHT22;5038;53.064;8.624;2022-10-03T14:27:45;17.50;99.90
9998;DHT22;5038;53.064;8.624;2022-10-03T14:30:16;17.50;99.90
9998;DHT22;5038;53.064;8.624;2022-10-03T14:32:53;17.40;99.90
9998;DHT22;5038;53.064;8.624;2022-10-03T14:35:37;17.40;99.90
9998;DHT22;5038;53.064;8.624;2022-10-03T14:38:29;17.40;99.90
9998;DHT22;5038;53.064;8.624;2022-10-03T14:41:18;17.40;99.90
9998;DHT22;5038;53.064;8.624;2022-10-03T14:43:52;17.40;99.90
9998;DHT22;5038;53.064;8.624;2022-10-03T14:46:24;17.40;99.90
9998;DHT22;5038;53.064;8.624;2022-10-03T14:48:56;17.30;99.90
9998;DHT22;5038;53.064;8.624;2022-10-03T14:51:30;17.30;99.90
9998;DHT22;5038;53.064;8.624;2022-10-03T14:54:03;17.30;99.90
9998;DHT22;5038;53.064;8.624;2022-10-03T14:56:40;17.30;99.90
9998;DHT22;5038;53.064;8.624;2022-10-03T14:59:12;17.30;99.90
9998;DHT22;5038;53.064;8.624;2022-10-03T15:01:49;17.30;99.90
9998;DHT22;5038;53.064;8.624;2022-10-03T15:04:26;17.30;99.90
9998;DHT22;5038;53.064;8.624;2022-10-03T15:06:57;17.30;99.90
9998;DHT22;5038;53.064;8.624;2022-10-03T15:09:40;17.30;99.90
9998;DHT22;5038;53.064;8.624;2022-10-03T15:12:12;17.30;99.90
9998;DHT22;5038;53.064;8.624;2022-10-03T15:14:45;17.30;99.90
9998;DHT22;5038;53.064;8.624;2022-10-03T15:17:17;17.30;99.90
9998;DHT22;5038;53.064;8.624;2022-10-03T15:19:49;17.30;99.90
9998;DHT22;5038;53.064;8.624;2022-10-03T15:22:27;17.30;99.90
9998;DHT22;5038;53.064;8.624;2022-10-03T15:25:00;17.30;99.90
9998;DHT22;5038;53.064;8.624;2022-10-03T15:27:30;17.30;99.90
9998;DHT22;5038;53.064;8.624;2022-10-03T15:30:02;17.30;99.90
9998;DHT22;5038;53.064;8.624;2022-10-03T15:32:34;17.30;99.90
9998;DHT22;5038;53.064;8.624;2022-10-03T15:35:04;17.30;99.90
9998;DHT22;5038;53.064;8.624;2022-10-03T15:37:38;17.30;99.90
9998;DHT22;5038;53.064;8.624;2022-10-03T15:40:20;17.30;99.90
9998;DHT22;5038;53.064;8.624;2022-10-03T15:43:00;17.20;99.90
9998;DHT22;5038;53.064;8.624;2022-10-03T15:45:31;17.20;99.90
9998;DHT22;5038;53.064;8.624;2022-10-03T15:48:03;17.10;99.90
9998;DHT22;5038;53.064;8.624;2022-10-03T15:50:37;17.10;99.90
9998;DHT22;5038;53.064;8.624;2022-10-03T15:53:12;17.10;99.90
9998;DHT22;5038;53.064;8.624;2022-10-03T15:56:09;17.00;99.90
9998;DHT22;5038;53.064;8.624;2022-10-03T15:58:42;17.00;99.90
9998;DHT22;5038;53.064;8.624;2022-10-03T16:01:17;16.90;99.90
9998;DHT22;5038;53.064;8.624;2022-10-03T16:03:49;16.90;99.90
9998;DHT22;5038;53.064;8.624;2022-10-03T16:06:20;16.90;99.90
9998;DHT22;5038;53.064;8.624;2022-10-03T16:08:57;16.90;99.90
9998;DHT22;5038;53.064;8.624;2022-10-03T16:11:30;16.90;99.90
9998;DHT22;5038;53.064;8.624;2022-10-03T16:14:11;16.80;99.90
9998;DHT22;5038;53.064;8.624;2022-10-03T16:16:45;16.80;99.90
9998;DHT22;5038;53.064;8.624;2022-10-03T16:19:28;16.80;99.90
9998;DHT22;5038;53.064;8.624;2022-10-03T16:22:06;16.80;99.90
9998;DHT22;5038;53.064;8.624;2022-10-03T16:24:56;16.70;99.90
9998;DHT22;5038;53.064;8.624;2022-10-03T16:27:26;16.70;99.90
9998;DHT22;5038;53.064;8.624;2022-10-03T16:30:15;16.60;99.90
9998;DHT22;5038;53.064;8.624;2022-10-03T16:35:34;16.50;99.90
9998;DHT22;5038;53.064;8.624;2022-10-03T16:38:07;16.50;99.90
9998;DHT22;5038;53.064;8.624;2022-10-03T16:40:37;16.50;99.90
9998;DHT22;5038;53.064;8.624;2022-10-03T16:43:06;16.40;99.90
9998;DHT22;5038;53.064;8.624;2022-10-03T16:45:39;16.40;99.90
9998;DHT22;5038;53.064;8.624;2022-10-03T16:48:19;16.30;99.90
9998;DHT22;5038;53.064;8.624;2022-10-03T16:51:14;16.30;99.90
9998;DHT22;5038;53.064;8.624;2022-10-03T16:53:44;16.20;99.90
9998;DHT22;5038;53.064;8.624;2022-10-03T16:56:17;16.20;99.90
9998;DHT22;5038;53.064;8.624;2022-10-03T16:58:50;16.10;99.90
9998;DHT22;5038;53.064;8.624;2022-10-03T17:01:35;16.10;99.90
9998;DHT22;5038;53.064;8.624;2022-10-03T17:04:14;16.00;99.90
9998;DHT22;5038;53.064;8.624;2022-10-03T17:06:45;16.00;99.90
9998;DHT22;5038;53.064;8.624;2022-10-03T17:09:20;15.90;99.90
9998;DHT22;5038;53.064;8.624;2022-10-03T17:11:53;15.90;99.90
9998;DHT22;5038;53.064;8.624;2022-10-03T17:14:23;15.90;99.90
9998;DHT22;5038;53.064;8.624;2022-10-03T17:16:56;15.80;99.90
9998;DHT22;5038;53.064;8.624;2022-10-03T17:19:32;15.80;99.90
9998;DHT22;5038;53.064;8.624;2022-10-03T17:22:08;15.70;99.90
9998;DHT22;5038;53.064;8.624;2022-10-03T17:24:47;15.60;99.90
9998;DHT22;5038;53.064;8.624;2022-10-03T17:27:23;15.60;99.90
9998;DHT22;5038;53.064;8.624;2022-10-03T17:29:57;15.50;99.90
9998;DHT22;5038;53.064;8.624;2022-10-03T17:32:32;15.50;99.90
9998;DHT22;5038;53.064;8.624;2022-10-03T17:35:05;15.50;99.90
9998;DHT22;5038;53.064;8.624;2022-10-03T17:37:58;15.40;99.90
9998;DHT22;5038;53.064;8.624;2022-10-03T17:40:57;15.40;99.90
9998;DHT22;5038;53.064;8.624;2022-10-03T17:43:34;15.30;99.90
9998;DHT22;5038;53.064;8.624;2022-10-03T17:46:13;15.30;99.90
9998;DHT22;5038;53.064;8.624;2022-10-03T17:48:49;15.30;99.90
9998;DHT22;5038;53.064;8.624;2022-10-03T17:51:33;15.20;99.90
9998;DHT22;5038;53.064;8.624;2022-10-03T17:54:09;15.20;99.90
9998;DHT22;5038;53.064;8.624;2022-10-03T17:56:42;15.10;99.90
9998;DHT22;5038;53.064;8.624;2022-10-03T17:59:17;15.10;99.90
9998;DHT22;5038;53.064;8.624;2022-10-03T18:01:50;15.10;99.90
9998;DHT22;5038;53.064;8.624;2022-10-03T18:04:27;15.00;99.90
9998;DHT22;5038;53.064;8.624;2022-10-03T18:07:01;15.00;99.90
9998;DHT22;5038;53.064;8.624;2022-10-03T18:09:33;14.90;99.90
9998;DHT22;5038;53.064;8.624;2022-10-03T18:12:17;14.90;99.90
9998;DHT22;5038;53.064;8.624;2022-10-03T18:17:59;14.80;99.90
9998;DHT22;5038;53.064;8.624;2022-10-03T18:20:40;14.70;99.90
9998;DHT22;5038;53.064;8.624;2022-10-03T18:23:19;14.70;99.90
9998;DHT22;5038;53.064;8.624;2022-10-03T18:26:16;14.60;99.90
9998;DHT22;5038;53.064;8.624;2022-10-03T18:28:54;14.50;99.90
9998;DHT22;5038;53.064;8.624;2022-10-03T18:31:29;14.50;99.90
9998;DHT22;5038;53.064;8.624;2022-10-03T18:34:05;14.40;99.90
9998;DHT22;5038;53.064;8.624;2022-10-03T18:36:43;14.40;99.90
9998;DHT22;5038;53.064;8.624;2022-10-03T18:39:15;14.30;99.90
9998;DHT22;5038;53.064;8.624;2022-10-03T18:41:45;14.30;99.90
9998;DHT22;5038;53.064;8.624;2022-10-03T18:44:16;14.30;99.90
9998;DHT22;5038;53.064;8.624;2022-10-03T18:46:49;14.20;99.90
9998;DHT22;5038;53.064;8.624;2022-10-03T18:49:23;14.20;99.90
9998;DHT22;5038;53.064;8.624;2022-10-03T18:52:06;14.20;99.90
9998;DHT22;5038;53.064;8.624;2022-10-03T18:54:47;14.10;99.90
9998;DHT22;5038;53.064;8.624;2022-10-03T18:57:23;14.10;99.90
9998;DHT22;5038;53.064;8.624;2022-10-03T18:59:54;14.00;99.90
9998;DHT22;5038;53.064;8.624;2022-10-03T19:02:30;14.00;99.90
9998;DHT22;5038;53.064;8.624;2022-10-03T19:05:06;14.00;99.90
9998;DHT22;5038;53.064;8.624;2022-10-03T19:07:42;13.90;99.90
9998;DHT22;5038;53.064;8.624;2022-10-03T19:10:36;13.90;99.90
9998;DHT22;5038;53.064;8.624;2022-10-03T19:13:16;13.90;99.90
9998;DHT22;5038;53.064;8.624;2022-10-03T19:16:10;13.80;99.90
9998;DHT22;5038;53.064;8.624;2022-10-03T19:18:45;13.80;99.90
9998;DHT22;5038;53.064;8.624;2022-10-03T19:21:16;13.70;99.90
9998;DHT22;5038;53.064;8.624;2022-10-03T19:23:49;13.70;99.90
9998;DHT22;5038;53.064;8.624;2022-10-03T19:26:22;13.70;99.90
9998;DHT22;5038;53.064;8.624;2022-10-03T19:28:55;13.60;99.90
9998;DHT22;5038;53.064;8.624;2022-10-03T19:31:27;13.60;99.90
9998;DHT22;5038;53.064;8.624;2022-10-03T19:34:02;13.50;99.90
9998;DHT22;5038;53.064;8.624;2022-10-03T19:36:35;13.50;99.90
9998;DHT22;5038;53.064;8.624;2022-10-03T19:39:10;13.50;99.90
9998;DHT22;5038;53.064;8.624;2022-10-03T19:41:48;13.40;99.90
9998;DHT22;5038;53.064;8.624;2022-10-03T19:44:21;13.40;99.90
9998;DHT22;5038;53.064;8.624;2022-10-03T19:47:00;13.40;99.90
9998;DHT22;5038;53.064;8.624;2022-10-03T19:49:42;13.30;99.90
9998;DHT22;5038;53.064;8.624;2022-10-03T19:52:18;13.30;99.90
9998;DHT22;5038;53.064;8.624;2022-10-03T19:54:50;13.30;99.90
9998;DHT22;5038;53.064;8.624;2022-10-03T19:57:24;13.20;99.90
9998;DHT22;5038;53.064;8.624;2022-10-03T19:59:57;13.20;99.90
9998;DHT22;5038;53.064;8.624;2022-10-03T20:02:27;13.20;99.90
9998;DHT22;5038;53.064;8.624;2022-10-03T20:04:57;13.10;99.90
9998;DHT22;5038;53.064;8.624;2022-10-03T20:07:43;13.10;99.90
9998;DHT22;5038;53.064;8.624;2022-10-03T20:10:35;13.00;99.90
9998;DHT22;5038;53.064;8.624;2022-10-03T20:13:07;13.00;99.90
9998;DHT22;5038;53.064;8.624;2022-10-03T20:15:40;12.90;99.90
9998;DHT22;5038;53.064;8.624;2022-10-03T20:18:16;12.90;99.90
9998;DHT22;5038;53.064;8.624;2022-10-03T20:20:50;12.90;99.90
9998;DHT22;5038;53.064;8.624;2022-10-03T20:23:22;12.80;99.90
9998;DHT22;5038;53.064;8.624;2022-10-03T20:26:00;12.80;99.90
9998;DHT22;5038;53.064;8.624;2022-10-03T20:28:48;12.80;99.90
9998;DHT22;5038;53.064;8.624;2022-10-03T20:31:20;12.70;99.90
9998;DHT22;5038;53.064;8.624;2022-10-03T20:33:49;12.70;99.90
9998;DHT22;5038;53.064;8.624;2022-10-03T20:36:23;12.70;99.90
9998;DHT22;5038;53.064;8.624;2022-10-03T20:39:02;12.70;99.90